DGAA/ACC METAR and TAF weather

Enter ICAO airport designator
Station Type Date Time Source
DGAA METAR 2019/04/21 22:00 UTC NOAA

DGAA 212200Z 21009KT CAVOK 29/26 Q1010 NOSIG


Station Type Date Time Source
DGAA Decoded METAR 2019/04/21 22:00 UTC NOAA

Accra, Ghana (DGAA) 05-36N 000-10W 69M
Apr 21, 2019 - 06:00 PM EDT / 2019.04.21 2200 UTC
Wind: from the SSW (210 degrees) at 10 MPH (9 KT):0
Visibility: greater than 7 mile(s):0
Temperature: 84 F (29 C)
Dew Point: 78 F (26 C)
Relative Humidity: 83%
Pressure (altimeter): 29.83 in. Hg (1010 hPa)
ob: DGAA 212200Z 21009KT CAVOK 29/26 Q1010 NOSIG
cycle: 22

Station Type Date Time Source
DGAA TAF 2019/04/21 18:21 UTC NOAA

TAF DGAA 211700Z 2118/2224 20010KT 9999 FEW015 PROB30
TEMPO 2120/2124 6000 -TSRA BKN014CB
BECMG 2200/2202 26010KT PROB40 2206/2209 7000 NSC
BECMG 2210/2212 19015KT 9999 SCT020

Example: see airport list